Lennoxville, Canada
Current Conditions -  °F | °C
As of 3:00 PM on Friday 21 Nov 2014 (Local Time) from CYSC Reporting Station
Few Clouds Few Clouds  
Wind Chill:   Ceiling: Unl
Heat Index: 19°   Visibility: 9mi
Dew Point:   Wind: 17mph
Humidity: 58%   Direction: 280°W
Pressure: 30.12"   Gusts: 24mph
Location:  45.37°N, 71.86°W
Report Text: CYSC 212000Z AUTO 28015G21KT 9SM FEW036 M07/M14 A3012 RMK SLP217
Loading
Personal Weather Stations






























Interactive Weather Map New forecast layout! Learn more

10-Day Weather Forecast

Advertisements
Track Severe Weather on mobile